createdAt,value
2019-01-23T00:05:02.778Z,31.28
2019-01-23T00:10:12.325Z,30.85
2019-01-23T00:15:21.518Z,30.40
2019-01-23T00:20:30.981Z,30.52
2019-01-23T00:25:40.303Z,31.82
2019-01-23T00:30:49.853Z,30.91
2019-01-23T00:35:59.099Z,31.81
2019-01-23T00:41:08.595Z,31.41
2019-01-23T00:46:17.902Z,32.79
2019-01-23T00:51:27.362Z,33.87
2019-01-23T00:56:36.675Z,32.65
2019-01-23T01:01:46.170Z,33.95
2019-01-23T01:06:55.734Z,34.81
2019-01-23T01:12:05.239Z,36.34
2019-01-23T01:17:14.534Z,33.81
2019-01-23T01:22:23.858Z,36.55
2019-01-23T01:27:33.034Z,35.28
2019-01-23T01:32:42.505Z,34.54
2019-01-23T01:37:51.750Z,36.71
2019-01-23T01:43:01.266Z,35.40
2019-01-23T01:48:10.871Z,35.83
2019-01-23T01:53:20.121Z,38.36
2019-01-23T01:58:28.213Z,37.54
2019-01-23T02:03:37.447Z,37.25
2019-01-23T02:08:46.597Z,37.46
2019-01-23T02:13:55.781Z,39.90
2019-01-23T02:19:04.884Z,40.21
2019-01-23T02:24:14.153Z,39.14
2019-01-23T02:29:23.329Z,36.97
2019-01-23T02:34:32.492Z,38.69
2019-01-23T02:39:40.169Z,38.49
2019-01-23T02:44:49.397Z,40.78
2019-01-23T02:49:58.585Z,39.63
2019-01-23T02:55:07.822Z,39.99
2019-01-23T03:00:16.896Z,39.98
2019-01-23T03:05:26.129Z,40.05
2019-01-23T03:10:35.281Z,43.56
2019-01-23T03:15:44.488Z,38.62
2019-01-23T03:20:53.644Z,40.83
2019-01-23T03:26:02.948Z,38.94
2019-01-23T03:31:12.350Z,39.63
2019-01-23T03:36:21.676Z,42.67
2019-01-23T03:41:30.762Z,40.51
2019-01-23T03:46:39.989Z,40.75
2019-01-23T03:51:49.142Z,41.36
2019-01-23T03:56:58.381Z,40.04
2019-01-23T04:02:07.480Z,40.41
2019-01-23T04:07:16.756Z,42.26
2019-01-23T04:12:25.888Z,41.96
2019-01-23T04:17:35.408Z,43.11
2019-01-23T04:22:44.562Z,43.98
2019-01-23T04:27:53.740Z,41.88
2019-01-23T04:33:02.840Z,43.27
2019-01-23T04:38:12.321Z,42.85
2019-01-23T04:43:21.428Z,44.30
2019-01-23T04:48:30.727Z,43.56
2019-01-23T04:53:39.897Z,46.90
2019-01-23T04:58:49.161Z,42.90
2019-01-23T05:03:58.238Z,44.81
2019-01-23T05:09:07.493Z,45.84
2019-01-23T05:14:16.633Z,48.48
2019-01-23T05:19:25.792Z,44.31
2019-01-23T05:24:34.882Z,47.18
2019-01-23T05:29:44.137Z,47.42
2019-01-23T05:34:53.263Z,47.17
2019-01-23T05:40:02.561Z,46.17
2019-01-23T05:45:11.633Z,44.61
2019-01-23T05:50:21.205Z,43.31
2019-01-23T05:55:30.273Z,47.13
2019-01-23T06:00:38.052Z,45.25
2019-01-23T06:05:47.146Z,45.12
2019-01-23T06:10:56.352Z,45.46
2019-01-23T06:16:05.428Z,46.36
2019-01-23T06:21:14.814Z,42.68
2019-01-23T06:26:23.926Z,46.66
2019-01-23T06:31:33.284Z,40.61
2019-01-23T06:36:42.347Z,49.26
2019-01-23T06:41:51.585Z,44.26
2019-01-23T06:47:00.760Z,45.49
2019-01-23T06:52:09.984Z,46.17
2019-01-23T06:57:19.285Z,46.60
2019-01-23T07:02:28.758Z,45.56
2019-01-23T07:07:38.067Z,44.07
2019-01-23T07:12:47.304Z,42.55
2019-01-23T07:17:56.441Z,44.63
2019-01-23T07:23:05.737Z,43.78
2019-01-23T07:28:14.801Z,44.56
2019-01-23T07:33:24.050Z,42.60
2019-01-23T07:38:33.128Z,43.32
2019-01-23T07:43:42.369Z,44.81
2019-01-23T07:48:51.446Z,45.83
2019-01-23T07:54:00.657Z,39.12
2019-01-23T07:59:09.960Z,43.27
2019-01-23T08:04:19.026Z,44.64
2019-01-23T08:09:28.296Z,43.38
2019-01-23T08:14:37.425Z,41.32
2019-01-23T08:19:46.607Z,42.77
2019-01-23T08:24:55.785Z,41.28
2019-01-23T08:30:06.273Z,40.42
2019-01-23T08:35:09.825Z,42.51
2019-01-23T08:40:09.254Z,42.58
2019-01-23T08:45:18.469Z,41.54
2019-01-23T08:50:27.661Z,42.21
2019-01-23T08:55:36.861Z,41.66
2019-01-23T09:00:46.244Z,41.28
2019-01-23T09:05:55.302Z,41.98
2019-01-23T09:11:04.409Z,39.14
2019-01-23T09:16:13.706Z,39.77
2019-01-23T09:21:22.886Z,39.63
2019-01-23T09:26:32.065Z,40.87
2019-01-23T09:31:41.498Z,43.50
2019-01-23T09:36:50.993Z,42.20
2019-01-23T09:42:00.085Z,42.04
2019-01-23T09:47:09.321Z,41.00
2019-01-23T09:52:18.472Z,42.45
2019-01-23T09:57:27.725Z,43.79
2019-01-23T10:02:36.881Z,43.69
2019-01-23T10:07:45.026Z,42.31
2019-01-23T10:12:57.196Z,42.07
2019-01-23T10:18:00.344Z,46.96
2019-01-23T10:22:59.429Z,43.62
2019-01-23T10:28:09.032Z,44.74
2019-01-23T10:33:21.182Z,43.18
2019-01-23T10:38:20.859Z,45.63
2019-01-23T10:43:29.010Z,45.22
2019-01-23T10:48:38.272Z,44.89
2019-01-23T10:53:47.358Z,42.42
2019-01-23T10:58:56.598Z,42.24
2019-01-23T11:04:05.900Z,44.35
2019-01-23T11:09:15.173Z,42.47
2019-01-23T11:14:24.337Z,42.52
2019-01-23T11:19:33.577Z,41.29
2019-01-23T11:24:42.672Z,45.01
2019-01-23T11:29:51.938Z,46.69
2019-01-23T11:35:01.153Z,42.46
2019-01-23T11:40:10.426Z,43.96
2019-01-23T11:45:20.742Z,43.04
2019-01-23T11:50:22.962Z,42.01
2019-01-23T11:55:28.329Z,41.93
2019-01-23T12:00:37.554Z,40.22
2019-01-23T12:05:46.752Z,44.16
2019-01-23T12:10:57.894Z,46.23
2019-01-23T12:16:05.029Z,45.22
2019-01-23T12:21:14.608Z,40.22
2019-01-23T12:26:23.794Z,39.42
2019-01-23T12:31:35.172Z,39.73
2019-01-23T12:36:41.613Z,42.94
2019-01-23T12:41:50.825Z,44.35
2019-01-23T12:46:59.937Z,45.11
2019-01-23T12:52:09.211Z,45.66
2019-01-23T12:57:18.304Z,47.39
2019-01-23T13:02:27.567Z,45.69
2019-01-23T13:07:36.630Z,45.17
2019-01-23T13:12:45.864Z,45.54
2019-01-23T13:17:54.966Z,45.14
2019-01-23T13:23:04.109Z,44.93
2019-01-23T13:28:13.269Z,42.47
2019-01-23T13:33:22.795Z,45.76
2019-01-23T13:38:31.954Z,43.52
2019-01-23T13:43:41.162Z,44.59
2019-01-23T13:48:50.269Z,43.37
2019-01-23T13:53:59.621Z,45.45
2019-01-23T13:59:10.364Z,44.93
2019-01-23T14:04:09.663Z,42.67
2019-01-23T14:09:18.732Z,42.27
2019-01-23T14:14:27.984Z,43.24
2019-01-23T14:19:37.133Z,43.61
2019-01-23T14:24:46.413Z,40.98
2019-01-23T14:29:55.582Z,42.56
2019-01-23T14:35:04.946Z,40.38
2019-01-23T14:40:14.345Z,41.05
2019-01-23T14:45:23.698Z,42.08
2019-01-23T14:50:32.857Z,39.78
2019-01-23T14:55:42.197Z,41.30
2019-01-23T15:00:54.214Z,43.53
2019-01-23T15:06:06.857Z,41.95
2019-01-23T15:10:55.885Z,43.60
2019-01-23T15:16:05.096Z,42.56
2019-01-23T15:21:14.193Z,43.51
2019-01-23T15:26:23.360Z,46.10
2019-01-23T15:31:32.436Z,42.43
2019-01-23T15:36:42.081Z,42.76
2019-01-23T15:41:51.160Z,42.09
2019-01-23T15:47:00.412Z,46.44
2019-01-23T15:52:09.481Z,42.81
2019-01-23T15:57:18.821Z,43.24
2019-01-23T16:02:28.033Z,43.22
2019-01-23T16:07:37.252Z,43.16
2019-01-23T16:12:46.317Z,45.30
2019-01-23T16:17:57.332Z,44.16
2019-01-23T16:23:04.317Z,43.36
2019-01-23T16:28:14.171Z,43.67
2019-01-23T16:33:23.393Z,44.03
2019-01-23T16:38:32.753Z,46.69
2019-01-23T16:43:42.295Z,43.78
2019-01-23T16:48:50.753Z,43.78
2019-01-23T16:53:59.837Z,44.66
2019-01-23T16:59:09.029Z,44.94
2019-01-23T17:04:18.211Z,43.48
2019-01-23T17:09:27.804Z,45.22
2019-01-23T17:14:36.826Z,44.16
2019-01-23T17:19:46.169Z,44.96
2019-01-23T17:24:55.269Z,45.00
2019-01-23T17:30:04.515Z,43.86
2019-01-23T17:35:13.622Z,46.39
2019-01-23T17:40:22.888Z,48.29
2019-01-23T17:45:31.941Z,46.36
2019-01-23T17:50:41.184Z,48.88
2019-01-23T17:55:50.293Z,49.04
2019-01-23T18:00:59.598Z,48.43
2019-01-23T18:06:08.696Z,50.23
2019-01-23T18:11:17.914Z,48.67
2019-01-23T18:16:27.009Z,50.24
2019-01-23T18:21:36.581Z,50.80
2019-01-23T18:26:45.734Z,49.76
2019-01-23T18:31:54.945Z,48.94
2019-01-23T18:37:04.227Z,50.72
2019-01-23T18:42:13.397Z,52.48
2019-01-23T18:47:22.466Z,52.06
2019-01-23T18:52:31.652Z,53.56
2019-01-23T18:57:40.741Z,52.73
2019-01-23T19:02:49.989Z,52.92
2019-01-23T19:07:59.073Z,54.46
2019-01-23T19:13:08.328Z,53.86
2019-01-23T19:18:17.533Z,54.83
2019-01-23T19:23:26.805Z,53.41
2019-01-23T19:28:35.920Z,53.85
2019-01-23T19:33:45.209Z,54.47
2019-01-23T19:38:54.283Z,55.25
2019-01-23T19:44:03.851Z,54.14
2019-01-23T19:49:13.089Z,56.63
2019-01-23T19:54:22.587Z,56.87
2019-01-23T19:59:31.765Z,55.04
2019-01-23T20:04:40.964Z,57.68
2019-01-23T20:09:50.125Z,58.90
2019-01-23T20:14:59.565Z,57.48
2019-01-23T20:20:08.674Z,58.23
2019-01-23T20:25:17.983Z,58.56
2019-01-23T20:30:27.084Z,57.26
2019-01-23T20:35:36.477Z,59.09
2019-01-23T20:40:45.747Z,61.53
2019-01-23T20:45:54.984Z,61.10
2019-01-23T20:51:04.047Z,63.55
2019-01-23T20:56:13.272Z,68.00
2019-01-23T21:01:22.338Z,63.79
2019-01-23T21:06:31.642Z,63.71
2019-01-23T21:11:40.783Z,65.56
2019-01-23T21:16:50.041Z,67.34
2019-01-23T21:21:59.252Z,67.96
2019-01-23T21:27:08.387Z,70.95
2019-01-23T21:32:17.537Z,69.32
2019-01-23T21:37:26.930Z,70.17
2019-01-23T21:42:36.047Z,67.55
2019-01-23T21:47:45.252Z,70.85
2019-01-23T21:52:54.555Z,66.98
2019-01-23T21:58:03.897Z,74.40
2019-01-23T22:03:13.032Z,73.73
2019-01-23T22:08:22.269Z,73.42
2019-01-23T22:13:31.448Z,74.76
2019-01-23T22:18:40.721Z,75.06
2019-01-23T22:23:49.805Z,72.17
2019-01-23T22:28:59.003Z,73.22
2019-01-23T22:34:08.229Z,72.96
2019-01-23T22:39:17.338Z,70.75
2019-01-23T22:47:27.421Z,75.19
2019-01-23T22:52:25.380Z,68.38
2019-01-23T22:57:33.438Z,67.22
2019-01-23T23:02:41.448Z,64.76
2019-01-23T23:07:49.427Z,62.64
2019-01-23T23:12:57.485Z,58.54
2019-01-23T23:18:05.464Z,68.03
2019-01-23T23:23:13.489Z,64.16
2019-01-23T23:28:25.911Z,58.38
2019-01-23T23:33:28.861Z,66.05
2019-01-23T23:38:36.954Z,58.90
2019-01-23T23:43:45.187Z,61.19
2019-01-23T23:48:53.121Z,61.19
2019-01-23T23:54:01.205Z,59.43
2019-01-23T23:59:09.210Z,61.75
